Time;durP1;ratioP1;P1;durP2;ratioP2;P2;SDS_P1;SDS_P2;PMS_P1;PMS_P2;Temp;Humidity;BMP_temperature;BMP_pressure;BME280_temperature;BME280_humidity;BME280_pressure;Samples;Min_cycle;Max_cycle;Signal;HPM_P1;HPM_P2
2022/04/11 00:01:00;;;;;;;6.03;2.80;;;;;;;6.72;nan;-24004.44;4957029;28;20260;-72
2022/04/11 00:03:26;;;;;;;2.80;2.60;;;;;;;6.76;nan;-24005.72;4955848;29;20286;-72
2022/04/11 00:05:51;;;;;;;4.53;2.67;;;;;;;6.54;nan;-23999.47;4955628;28;20189;-72
2022/04/11 00:08:19;;;;;;;3.10;2.80;;;;;;;6.68;nan;-24003.31;4952325;28;20217;-72
2022/04/11 00:10:45;;;;;;;3.40;3.10;;;;;;;6.96;nan;-24011.25;4950471;29;20678;-72
2022/04/11 00:13:11;;;;;;;2.83;2.63;;;;;;;6.76;nan;-24005.56;4950664;29;20268;-72
2022/04/11 00:15:39;;;;;;;3.30;3.00;;;;;;;6.92;nan;-24010.13;4951931;29;20950;-72
2022/04/11 00:18:05;;;;;;;3.00;2.70;;;;;;;6.52;nan;-23999.03;4951077;29;20218;-72
2022/04/11 00:20:31;;;;;;;3.23;2.93;;;;;;;6.99;nan;-24012.09;4950534;29;20189;-71
2022/04/11 00:22:57;;;;;;;3.57;3.10;;;;;;;6.95;nan;-24010.97;4952615;29;20571;-72
2022/04/11 00:25:23;;;;;;;3.80;3.10;;;;;;;6.49;nan;-23998.06;4956505;29;20189;-72
2022/04/11 00:27:48;;;;;;;3.30;3.00;;;;;;;6.59;nan;-24001.03;4954797;28;20661;-72
2022/04/11 00:30:13;;;;;;;3.30;3.00;;;;;;;7.08;nan;-24014.78;4955854;29;20221;-72
2022/04/11 00:32:41;;;;;;;3.70;3.13;;;;;;;6.60;nan;-24001.19;4955955;29;20662;-72
2022/04/11 00:35:08;;;;;;;3.43;3.13;;;;;;;6.97;nan;-24011.66;4955940;29;20190;-71
2022/04/11 00:37:34;;;;;;;3.30;3.00;;;;;;;6.69;nan;-24003.72;4955022;28;20190;-71
2022/04/11 00:40:00;;;;;;;3.50;3.20;;;;;;;6.93;nan;-24010.53;4956343;28;20190;-71
2022/04/11 00:42:28;;;;;;;3.30;2.97;;;;;;;6.71;nan;-24004.16;4956455;28;20194;-71
2022/04/11 00:44:54;;;;;;;3.63;3.23;;;;;;;7.00;nan;-24012.53;4953569;29;20194;-71
2022/04/11 00:47:20;;;;;;;3.93;3.10;;;;;;;7.02;nan;-24012.94;4953660;29;20205;-71
2022/04/11 00:49:46;;;;;;;3.77;3.20;;;;;;;6.82;nan;-24007.28;4954909;28;20190;-71
2022/04/11 00:52:13;;;;;;;4.33;3.10;;;;;;;6.99;nan;-24012.25;4939329;29;20240;-71
2022/04/11 00:54:39;;;;;;;3.33;3.03;;;;;;;6.58;nan;-24000.59;4955063;29;20689;-72
2022/04/11 00:57:05;;;;;;;3.87;3.00;;;;;;;6.93;nan;-24010.41;4954743;28;20213;-72
2022/04/11 00:59:31;;;;;;;3.17;2.97;;;;;;;6.83;nan;-24007.69;4952074;28;20649;-72
2022/04/11 01:01:56;;;;;;;3.40;2.87;;;;;;;6.82;nan;-24007.28;4955270;29;20249;-72
2022/04/11 01:04:26;;;;;;;3.40;2.90;;;;;;;6.88;nan;-24008.97;4954046;28;20182;-72
2022/04/11 01:06:55;;;;;;;3.50;3.20;;;;;;;6.94;nan;-24010.81;4951959;29;20756;-72
2022/04/11 01:09:23;;;;;;;4.67;3.07;;;;;;;6.84;nan;-24008.00;4951984;29;20584;-72
2022/04/11 01:11:49;;;;;;;3.40;3.10;;;;;;;7.07;nan;-24014.38;4950451;29;20196;-72
2022/04/11 01:14:14;;;;;;;4.13;3.10;;;;;;;6.66;nan;-24003.00;4950198;29;20301;-72
2022/04/11 01:16:49;;;;;;;3.23;2.93;;;;;;;6.65;nan;-24002.72;4950176;28;20302;-72
2022/04/11 01:19:15;;;;;;;3.20;2.90;;;;;;;7.07;nan;-24014.50;4953057;29;20634;-72
2022/04/11 01:21:42;;;;;;;3.40;3.10;;;;;;;7.08;nan;-24014.66;4952148;29;20192;-72
2022/04/11 01:24:07;;;;;;;3.00;2.73;;;;;;;7.04;nan;-24013.66;4952059;29;20188;-72
2022/04/11 01:26:33;;;;;;;3.53;3.23;;;;;;;6.65;nan;-24002.59;4952909;29;20185;-72
2022/04/11 01:28:59;;;;;;;3.73;3.10;;;;;;;6.68;nan;-24003.44;4948265;29;20665;-72
2022/04/11 01:31:25;;;;;;;3.33;3.00;;;;;;;6.95;nan;-24011.09;4948733;28;20661;-72
2022/04/11 01:33:51;;;;;;;3.47;3.10;;;;;;;7.18;nan;-24017.34;4953644;29;20208;-72
2022/04/11 01:36:16;;;;;;;3.47;3.17;;;;;;;7.19;nan;-24017.78;4951069;28;20221;-72
2022/04/11 01:38:42;;;;;;;3.80;3.20;;;;;;;6.79;nan;-24006.44;4952925;29;20721;-71
2022/04/11 01:41:08;;;;;;;3.37;3.07;;;;;;;7.28;nan;-24020.19;4955067;29;20182;-72
2022/04/11 01:43:33;;;;;;;3.50;3.20;;;;;;;6.75;nan;-24005.44;4954640;28;20248;-72
2022/04/11 01:45:58;;;;;;;4.37;3.40;;;;;;;6.70;nan;-24004.00;4954651;29;20218;-72
2022/04/11 01:48:24;;;;;;;3.73;3.20;;;;;;;6.76;nan;-24005.72;4955041;29;20190;-72
2022/04/11 01:50:49;;;;;;;3.53;3.23;;;;;;;6.71;nan;-24004.16;4954717;28;20301;-72
2022/04/11 01:53:17;;;;;;;3.63;3.33;;;;;;;6.87;nan;-24008.84;4957711;28;20719;-72
2022/04/11 01:55:43;;;;;;;3.90;3.40;;;;;;;6.87;nan;-24008.84;4956217;28;20186;-72
2022/04/11 01:58:10;;;;;;;3.90;3.50;;;;;;;6.66;nan;-24003.00;4969981;28;20182;-71
2022/04/11 02:00:36;;;;;;;4.13;3.47;;;;;;;7.20;nan;-24017.91;4949967;28;20198;-72
2022/04/11 02:03:06;;;;;;;4.13;3.50;;;;;;;7.10;nan;-24015.22;4961247;28;20194;-72
2022/04/11 02:05:33;;;;;;;5.27;3.70;;;;;;;6.99;nan;-24012.09;4967130;28;20665;-72
2022/04/11 02:07:58;;;;;;;4.73;3.87;;;;;;;6.68;nan;-24003.31;4947324;28;20178;-72
2022/04/11 02:10:25;;;;;;;4.07;3.67;;;;;;;6.79;nan;-24006.44;4945748;28;20186;-72
2022/04/11 02:12:51;;;;;;;4.10;3.70;;;;;;;6.50;nan;-23998.34;4949733;28;20210;-72
2022/04/11 02:15:17;;;;;;;4.20;3.80;;;;;;;6.67;nan;-24003.16;4949275;28;20233;-72
2022/04/11 02:17:44;;;;;;;3.93;3.53;;;;;;;6.98;nan;-24011.81;4950307;28;20178;-72
2022/04/11 02:20:11;;;;;;;4.03;3.63;;;;;;;7.08;nan;-24014.66;4949243;28;20174;-72
2022/04/11 02:22:48;;;;;;;5.20;3.67;;;;;;;6.69;nan;-24003.72;4948948;28;20273;-71
2022/04/11 02:25:14;;;;;;;4.70;4.03;;;;;;;6.70;nan;-24004.00;4960611;28;20217;-72
2022/04/11 02:27:40;;;;;;;5.43;4.17;;;;;;;7.14;nan;-24016.34;4965079;28;20193;-72
2022/04/11 02:30:06;;;;;;;4.47;4.03;;;;;;;6.74;nan;-24005.00;4954052;28;20723;-72
2022/04/11 02:32:32;;;;;;;4.57;4.17;;;;;;;7.08;nan;-24014.78;4955198;28;20256;-72
2022/04/11 02:34:57;;;;;;;5.07;4.20;;;;;;;6.91;nan;-24009.97;4949555;28;20178;-72
2022/04/11 02:37:22;;;;;;;7.97;4.30;;;;;;;6.73;nan;-24004.72;4951572;28;20292;-72
2022/04/11 02:39:48;;;;;;;4.80;4.17;;;;;;;6.95;nan;-24011.09;4952626;28;20679;-72
2022/04/11 02:42:25;;;;;;;5.33;4.17;;;;;;;6.50;nan;-23998.34;4966613;28;20556;-72
2022/04/11 02:44:52;;;;;;;6.07;4.20;;;;;;;6.64;nan;-24002.31;4939954;29;20573;-72
2022/04/11 02:47:18;;;;;;;6.10;4.30;;;;;;;7.13;nan;-24015.94;4953387;28;20186;-72
2022/04/11 02:49:43;;;;;;;4.70;4.20;;;;;;;6.87;nan;-24008.84;4971055;28;20193;-72
2022/04/11 02:52:09;;;;;;;4.73;4.10;;;;;;;6.66;nan;-24002.88;4953783;28;20222;-72
2022/04/11 02:54:36;;;;;;;5.20;4.20;;;;;;;6.57;nan;-24000.47;4953195;29;20210;-72
2022/04/11 02:57:01;;;;;;;4.50;4.10;;;;;;;7.07;nan;-24014.50;4953051;29;20732;-72
2022/04/11 02:59:26;;;;;;;4.67;4.10;;;;;;;6.95;nan;-24011.09;4953964;29;20268;-72
2022/04/11 03:01:52;;;;;;;5.03;4.17;;;;;;;6.76;nan;-24005.56;4952621;29;20194;-72
2022/04/11 03:04:17;;;;;;;5.07;4.33;;;;;;;6.75;nan;-24005.28;4951067;29;20215;-72
2022/04/11 03:06:43;;;;;;;7.37;3.87;;;;;;;7.13;nan;-24016.06;4968535;28;20259;-71
2022/04/11 03:09:08;;;;;;;4.53;4.00;;;;;;;6.87;nan;-24008.84;4953364;29;20185;-72
2022/04/11 03:11:34;;;;;;;5.17;4.10;;;;;;;6.65;nan;-24002.72;4954077;28;20269;-72
2022/04/11 03:13:59;;;;;;;4.50;3.83;;;;;;;7.27;nan;-24019.91;4953863;28;20223;-72
2022/04/11 03:16:25;;;;;;;5.47;4.17;;;;;;;7.22;nan;-24018.47;4952789;29;20194;-72
2022/04/11 03:18:50;;;;;;;5.33;4.00;;;;;;;7.16;nan;-24016.91;4955061;28;20574;-72
2022/04/11 03:21:16;;;;;;;5.23;4.00;;;;;;;7.23;nan;-24018.91;4959190;28;20282;-72
2022/04/11 03:23:41;;;;;;;5.00;4.37;;;;;;;7.25;nan;-24019.47;4957769;28;20189;-72
2022/04/11 03:26:06;;;;;;;5.40;4.03;;;;;;;6.88;nan;-24009.13;4976262;28;20192;-72
2022/04/11 03:28:32;;;;;;;4.40;3.70;;;;;;;7.13;nan;-24016.06;4953683;28;20178;-71
2022/04/11 03:30:59;;;;;;;5.03;3.90;;;;;;;7.10;nan;-24015.34;4952806;29;20241;-72
2022/04/11 03:33:24;;;;;;;6.10;3.73;;;;;;;7.26;nan;-24019.63;4954075;28;20193;-71
2022/04/11 03:35:50;;;;;;;6.40;3.70;;;;;;;7.13;nan;-24015.94;4953529;29;20240;-72
2022/04/11 03:38:16;;;;;;;4.67;4.10;;;;;;;7.16;nan;-24016.91;4952821;29;20178;-72
2022/04/11 03:40:41;;;;;;;3.50;3.20;;;;;;;7.16;nan;-24016.91;4952882;28;20188;-72
2022/04/11 03:43:07;;;;;;;4.20;3.70;;;;;;;6.82;nan;-24007.28;4953794;28;20214;-72
2022/04/11 03:45:32;;;;;;;4.00;3.60;;;;;;;7.33;nan;-24021.59;4953969;28;20217;-72
2022/04/11 03:47:58;;;;;;;4.83;3.50;;;;;;;7.04;nan;-24013.66;4952517;29;20205;-73
2022/04/11 03:50:23;;;;;;;3.33;3.03;;;;;;;7.01;nan;-24012.81;4953352;28;20620;-73
2022/04/11 03:52:49;;;;;;;3.87;3.27;;;;;;;6.89;nan;-24009.41;4963157;28;20280;-72
2022/04/11 03:55:15;;;;;;;3.47;3.17;;;;;;;6.77;nan;-24006.00;4945302;28;20197;-72
2022/04/11 03:57:40;;;;;;;3.97;2.97;;;;;;;7.16;nan;-24016.91;4963491;28;20649;-73
2022/04/11 04:00:08;;;;;;;3.87;3.03;;;;;;;6.96;nan;-24011.38;4963999;28;20215;-73
2022/04/11 04:02:34;;;;;;;3.10;2.80;;;;;;;7.06;nan;-24014.22;4963783;28;20182;-73
2022/04/11 04:04:59;;;;;;;3.37;2.70;;;;;;;6.67;nan;-24003.16;4963887;28;20181;-72
2022/04/11 04:07:25;;;;;;;3.00;2.60;;;;;;;6.58;nan;-24000.59;4964812;28;20199;-72
2022/04/11 04:09:51;;;;;;;2.80;2.50;;;;;;;6.84;nan;-24007.84;4963989;28;20220;-72
2022/04/11 04:12:21;;;;;;;3.23;2.40;;;;;;;6.94;nan;-24010.81;4945736;28;20190;-72
2022/04/11 04:14:48;;;;;;;2.67;2.40;;;;;;;6.97;nan;-24011.66;4963577;28;20697;-72
2022/04/11 04:17:14;;;;;;;5.03;2.47;;;;;;;6.63;nan;-24002.16;4963282;28;20269;-72
2022/04/11 04:19:40;;;;;;;4.00;2.20;;;;;;;6.89;nan;-24009.25;4953252;28;20212;-73
2022/04/11 04:22:07;;;;;;;2.20;2.00;;;;;;;6.54;nan;-23999.47;4988920;28;20265;-72
2022/04/11 04:24:34;;;;;;;2.30;2.10;;;;;;;7.02;nan;-24013.09;4990188;28;20183;-73
2022/04/11 04:27:01;;;;;;;2.33;2.10;;;;;;;7.10;nan;-24015.22;4977081;28;20562;-72
2022/04/11 04:29:27;;;;;;;3.17;2.50;;;;;;;7.01;nan;-24012.66;4962310;28;20249;-72
2022/04/11 04:31:54;;;;;;;4.80;2.40;;;;;;;6.87;nan;-24008.69;4970333;28;20181;-72
2022/04/11 04:34:22;;;;;;;4.90;3.00;;;;;;;7.04;nan;-24013.50;4956834;28;20310;-72
2022/04/11 04:36:48;;;;;;;4.40;2.80;;;;;;;6.75;nan;-24005.44;4956293;28;20191;-74
2022/04/11 04:39:14;;;;;;;4.07;2.40;;;;;;;6.86;nan;-24008.56;4956234;29;20274;-73
2022/04/11 04:41:40;;;;;;;6.50;2.60;;;;;;;6.93;nan;-24010.41;4956597;29;20265;-73
2022/04/11 04:44:06;;;;;;;3.90;1.83;;;;;;;7.20;nan;-24018.06;4956313;29;20708;-73
2022/04/11 04:46:33;;;;;;;3.00;1.90;;;;;;;6.94;nan;-24010.69;4973017;28;20197;-72
2022/04/11 04:48:58;;;;;;;1.53;1.37;;;;;;;7.37;nan;-24022.72;4956903;29;20215;-75
2022/04/11 04:51:24;;;;;;;1.57;1.40;;;;;;;7.46;nan;-24025.28;4957806;28;20257;-72
2022/04/11 04:53:49;;;;;;;4.30;1.60;;;;;;;7.46;nan;-24025.28;4955825;29;20293;-72
2022/04/11 04:56:15;;;;;;;2.07;1.70;;;;;;;7.47;nan;-24025.56;4956011;28;20218;-72
2022/04/11 04:58:40;;;;;;;1.47;1.37;;;;;;;7.50;nan;-24026.56;4938822;29;20181;-71
2022/04/11 05:01:06;;;;;;;2.23;1.30;;;;;;;7.55;nan;-24027.84;4954420;29;20223;-70
2022/04/11 05:03:31;;;;;;;1.50;1.40;;;;;;;7.41;nan;-24023.88;4955354;29;20182;-71
2022/04/11 05:05:57;;;;;;;1.50;1.40;;;;;;;7.59;nan;-24028.81;4955493;29;20182;-71
2022/04/11 05:08:22;;;;;;;1.43;1.17;;;;;;;7.35;nan;-24022.16;4955250;29;20843;-73
2022/04/11 05:10:47;;;;;;;2.60;1.30;;;;;;;7.62;nan;-24029.69;4955603;29;20213;-71
2022/04/11 05:13:13;;;;;;;1.53;1.23;;;;;;;7.87;nan;-24036.75;4955116;29;20257;-71
2022/04/11 05:15:39;;;;;;;1.13;1.03;;;;;;;7.83;nan;-24035.78;4955186;29;20663;-71
2022/04/11 05:18:05;;;;;;;1.30;1.20;;;;;;;7.74;nan;-24033.22;4955263;29;20634;-71
2022/04/11 05:20:31;;;;;;;1.13;1.10;;;;;;;8.01;nan;-24040.72;4954903;29;20289;-71
2022/04/11 05:22:56;;;;;;;1.30;1.20;;;;;;;7.64;nan;-24030.25;4955152;29;20196;-73
2022/04/11 05:25:21;;;;;;;1.10;1.10;;;;;;;8.16;nan;-24044.97;4955303;29;20178;-71
2022/04/11 05:27:47;;;;;;;1.20;1.03;;;;;;;7.92;nan;-24038.19;4959052;28;20192;-71
2022/04/11 05:30:12;;;;;;;1.30;1.20;;;;;;;7.99;nan;-24040.16;4956677;28;20186;-73
2022/04/11 05:32:37;;;;;;;1.50;1.40;;;;;;;8.19;nan;-24045.69;4959965;28;20190;-71
2022/04/11 05:35:04;;;;;;;1.70;1.40;;;;;;;8.69;nan;-24059.84;4955104;29;20186;-71
2022/04/11 05:37:29;;;;;;;1.93;1.73;;;;;;;8.47;nan;-24053.63;4954892;29;20209;-74
2022/04/11 05:39:54;;;;;;;1.60;1.50;;;;;;;8.66;nan;-24059.00;4955771;28;20202;-71
2022/04/11 05:42:20;;;;;;;2.23;1.50;;;;;;;8.31;nan;-24049.09;4959108;28;20197;-71
2022/04/11 05:44:45;;;;;;;1.50;1.40;;;;;;;8.26;nan;-24047.66;4954712;28;20247;-71
2022/04/11 05:47:12;;;;;;;1.83;1.30;;;;;;;8.41;nan;-24052.06;4954895;29;20170;-71
2022/04/11 05:49:39;;;;;;;3.00;1.50;;;;;;;8.84;nan;-24064.09;4959129;28;20646;-73
2022/04/11 05:52:06;;;;;;;1.73;1.63;;;;;;;8.99;nan;-24068.19;4957245;28;20720;-71
2022/04/11 05:54:31;;;;;;;1.80;1.70;;;;;;;8.46;nan;-24053.34;4958292;28;20218;-71
2022/04/11 05:56:57;;;;;;;1.60;1.50;;;;;;;8.74;nan;-24061.13;4954760;29;20196;-71
2022/04/11 05:59:23;;;;;;;3.93;1.40;;;;;;;8.90;nan;-24065.50;4957221;28;20203;-71
2022/04/11 06:01:48;;;;;;;1.40;1.30;;;;;;;8.58;nan;-24056.59;4956347;28;20185;-71
2022/04/11 06:04:13;;;;;;;3.10;1.50;;;;;;;8.70;nan;-24060.13;4954059;28;20212;-71
2022/04/11 06:06:39;;;;;;;1.50;1.40;;;;;;;9.05;nan;-24069.88;4956433;28;20573;-73
2022/04/11 06:09:05;;;;;;;1.73;1.57;;;;;;;8.93;nan;-24066.34;4954409;29;20263;-70
2022/04/11 06:11:30;;;;;;;5.93;1.63;;;;;;;9.14;nan;-24072.28;4954439;29;20182;-72
2022/04/11 06:13:56;;;;;;;2.23;1.67;;;;;;;9.52;nan;-24082.91;4953903;29;20205;-71
2022/04/11 06:16:21;;;;;;;2.83;1.33;;;;;;;9.28;nan;-24076.38;4953857;29;20185;-73
2022/04/11 06:18:47;;;;;;;2.73;1.60;;;;;;;9.38;nan;-24079.06;4953506;28;20182;-73
2022/04/11 06:21:12;;;;;;;2.00;1.53;;;;;;;9.41;nan;-24079.91;4952547;28;20188;-73
2022/04/11 06:23:37;;;;;;;1.57;1.47;;;;;;;9.28;nan;-24076.25;4954365;29;20542;-74
2022/04/11 06:26:04;;;;;;;2.37;1.60;;;;;;;8.90;nan;-24065.50;4954887;28;20248;-72
2022/04/11 06:28:29;;;;;;;4.70;1.50;;;;;;;9.18;nan;-24073.41;4961623;28;20545;-72
2022/04/11 06:30:55;;;;;;;1.97;1.40;;;;;;;8.88;nan;-24065.22;4957323;28;20188;-72
2022/04/11 06:33:20;;;;;;;1.40;1.30;;;;;;;9.06;nan;-24070.03;4959303;28;20731;-72
2022/04/11 06:35:45;;;;;;;1.87;1.60;;;;;;;9.36;nan;-24078.38;4959252;28;20705;-72
2022/04/11 06:38:11;;;;;;;2.90;1.73;;;;;;;9.14;nan;-24072.28;4960887;28;20188;-72
2022/04/11 06:40:36;;;;;;;2.37;1.90;;;;;;;9.17;nan;-24073.13;4960471;28;20276;-73
2022/04/11 06:43:02;;;;;;;2.57;2.37;;;;;;;9.15;nan;-24072.72;4957865;28;20210;-73
2022/04/11 06:45:27;;;;;;;3.90;2.03;;;;;;;9.54;nan;-24083.59;4956781;28;20181;-73
2022/04/11 06:47:53;;;;;;;3.00;1.90;;;;;;;9.80;nan;-24090.66;4956416;28;20563;-72
2022/04/11 06:50:18;;;;;;;2.23;1.90;;;;;;;9.65;nan;-24086.72;4958870;28;20189;-73
2022/04/11 06:52:44;;;;;;;2.80;1.50;;;;;;;9.74;nan;-24089.09;4952128;28;20702;-72
2022/04/11 06:55:09;;;;;;;2.27;1.50;;;;;;;9.27;nan;-24076.09;4945569;29;20186;-72
2022/04/11 06:57:34;;;;;;;2.23;1.50;;;;;;;9.55;nan;-24083.88;4946351;29;20178;-72
2022/04/11 07:00:01;;;;;;;4.07;1.90;;;;;;;9.98;nan;-24095.75;4946940;29;20221;-73
2022/04/11 07:02:27;;;;;;;2.87;1.70;;;;;;;9.91;nan;-24093.91;4953180;29;20178;-72
2022/04/11 07:04:53;;;;;;;3.93;1.67;;;;;;;9.83;nan;-24091.50;4951981;28;20622;-73
2022/04/11 07:07:19;;;;;;;5.83;1.90;;;;;;;9.79;nan;-24090.38;4945347;29;20174;-72
2022/04/11 07:09:45;;;;;;;2.00;1.80;;;;;;;10.13;nan;-24099.97;4948074;29;20220;-72
2022/04/11 07:12:11;;;;;;;4.80;2.13;;;;;;;10.36;nan;-24106.47;4948141;29;20565;-73
2022/04/11 07:14:36;;;;;;;3.00;2.00;;;;;;;10.61;nan;-24113.41;4945748;29;20803;-73
2022/04/11 07:17:02;;;;;;;2.60;2.00;;;;;;;10.08;nan;-24098.72;4946648;29;20273;-72
2022/04/11 07:19:27;;;;;;;3.10;2.30;;;;;;;10.26;nan;-24103.53;4946055;29;20675;-73
2022/04/11 07:21:53;;;;;;;2.80;2.03;;;;;;;9.86;nan;-24092.34;4951252;29;20286;-73
2022/04/11 07:24:18;;;;;;;3.13;2.20;;;;;;;9.85;nan;-24092.06;4947059;28;20190;-73
2022/04/11 07:26:43;;;;;;;4.23;2.30;;;;;;;10.32;nan;-24105.22;4956439;28;20321;-73
2022/04/11 07:29:09;;;;;;;2.40;2.20;;;;;;;10.02;nan;-24096.88;4942507;29;20197;-73
2022/04/11 07:31:35;;;;;;;5.13;2.30;;;;;;;10.49;nan;-24110.00;4943618;29;20197;-73
2022/04/11 07:34:01;;;;;;;2.07;1.87;;;;;;;10.04;nan;-24097.59;4951987;29;20693;-73
2022/04/11 07:36:28;;;;;;;2.33;1.90;;;;;;;10.37;nan;-24106.75;4949941;29;20277;-73
2022/04/11 07:38:55;;;;;;;2.17;1.97;;;;;;;10.39;nan;-24107.19;4948670;28;20607;-73
2022/04/11 07:41:21;;;;;;;1.80;1.70;;;;;;;9.95;nan;-24094.91;4950799;29;20182;-72
2022/04/11 07:43:46;;;;;;;1.70;1.60;;;;;;;9.65;nan;-24086.72;4951662;29;20193;-73
2022/04/11 07:46:11;;;;;;;1.73;1.63;;;;;;;9.77;nan;-24090.09;4947194;28;20379;-73
2022/04/11 07:48:37;;;;;;;2.83;1.60;;;;;;;10.18;nan;-24101.53;4950656;29;20194;-72
2022/04/11 07:51:02;;;;;;;3.20;1.90;;;;;;;9.81;nan;-24090.94;4951470;28;20649;-73
2022/04/11 07:53:28;;;;;;;2.63;2.23;;;;;;;10.04;nan;-24097.59;4948119;29;20213;-73
2022/04/11 07:55:53;;;;;;;3.20;2.00;;;;;;;10.08;nan;-24098.56;4950506;29;20232;-73
2022/04/11 07:58:20;;;;;;;2.37;1.97;;;;;;;9.65;nan;-24086.56;4951233;29;20189;-73
2022/04/11 08:00:50;;;;;;;2.27;1.97;;;;;;;9.63;nan;-24086.13;4950785;29;20186;-72
2022/04/11 08:03:17;;;;;;;2.33;1.87;;;;;;;9.72;nan;-24088.53;4951824;29;20193;-72
2022/04/11 08:05:42;;;;;;;2.30;1.90;;;;;;;9.86;nan;-24092.50;4954880;28;20190;-73
2022/04/11 08:08:08;;;;;;;2.23;1.93;;;;;;;10.09;nan;-24098.84;4954002;28;20317;-73
2022/04/11 08:10:34;;;;;;;2.80;2.20;;;;;;;10.17;nan;-24101.13;4954668;29;20565;-73
2022/04/11 08:13:00;;;;;;;2.50;2.17;;;;;;;9.91;nan;-24093.91;4953360;29;20197;-73
2022/04/11 08:15:28;;;;;;;2.20;2.00;;;;;;;10.16;nan;-24100.84;4943449;29;20673;-73
2022/04/11 08:17:54;;;;;;;2.43;2.23;;;;;;;10.32;nan;-24105.22;4954435;29;20190;-73
2022/04/11 08:20:20;;;;;;;2.57;2.37;;;;;;;10.52;nan;-24111.00;4951469;29;20182;-73
2022/04/11 08:22:46;;;;;;;2.50;2.30;;;;;;;10.92;nan;-24122.13;4951277;28;20186;-73
2022/04/11 08:25:12;;;;;;;4.07;2.30;;;;;;;11.57;nan;-24140.03;4951585;28;20178;-73
2022/04/11 08:27:38;;;;;;;2.70;2.13;;;;;;;11.31;nan;-24132.84;4953250;29;20559;-73
2022/04/11 08:30:04;;;;;;;3.23;2.43;;;;;;;11.98;nan;-24151.59;4952124;29;20189;-74
2022/04/11 08:32:56;;;;;;;2.95;2.50;;;;;;;11.74;nan;-24144.97;4953156;29;20265;-74
2022/04/11 08:35:22;;;;;;;2.70;2.20;;;;;;;10.74;nan;-24116.91;4949618;29;20194;-73
2022/04/11 08:37:48;;;;;;;3.60;2.23;;;;;;;11.00;nan;-24124.41;4950766;28;20536;-73
2022/04/11 08:40:21;;;;;;;4.03;2.47;;;;;;;11.60;nan;-24140.88;4950679;29;20200;-73
2022/04/11 08:42:50;;;;;;;4.93;2.70;;;;;;;11.82;nan;-24147.09;4951390;28;20197;-73
2022/04/11 08:45:19;;;;;;;2.67;2.47;;;;;;;11.82;nan;-24147.22;4952283;28;20201;-73
2022/04/11 08:47:45;;;;;;;2.38;2.17;;;;;;;12.11;nan;-24155.13;4951588;29;20186;-73
2022/04/11 08:50:12;;;;;;;4.27;2.40;;;;;;;11.90;nan;-24149.34;4951562;29;20190;-73
2022/04/11 08:52:37;;;;;;;3.43;2.83;;;;;;;11.66;nan;-24142.72;4953207;29;20376;-73
2022/04/11 08:55:03;;;;;;;3.67;2.85;;;;;;;11.70;nan;-24143.69;4952453;28;20217;-73
2022/04/11 08:57:29;;;;;;;3.05;2.75;;;;;;;11.69;nan;-24143.41;4949855;29;20209;-73
2022/04/11 08:59:55;;;;;;;2.95;2.67;;;;;;;12.18;nan;-24157.22;4950596;29;20185;-73
2022/04/11 09:02:33;;;;;;;5.50;2.97;;;;;;;12.20;nan;-24157.78;4953924;29;20237;-73
2022/04/11 09:04:59;;;;;;;3.90;3.33;;;;;;;11.06;nan;-24126.09;4953617;29;20197;-73
2022/04/11 09:07:24;;;;;;;2.87;2.60;;;;;;;11.17;nan;-24129.03;4967190;28;20316;-73
2022/04/11 09:09:50;;;;;;;4.67;2.83;;;;;;;11.30;nan;-24132.56;4980405;29;20169;-73
2022/04/11 09:12:18;;;;;;;3.90;3.00;;;;;;;11.72;nan;-24144.25;4964116;29;20281;-72
2022/04/11 09:14:51;;;;;;;5.13;3.17;;;;;;;11.36;nan;-24134.25;4952503;29;20304;-72
2022/04/11 09:17:16;;;;;;;3.30;3.00;;;;;;;11.02;nan;-24124.97;4950456;28;20366;-72
2022/04/11 09:19:42;;;;;;;3.40;3.10;;;;;;;10.86;nan;-24120.31;4952048;29;20280;-72
2022/04/11 09:22:07;;;;;;;3.43;3.10;;;;;;;10.72;nan;-24116.34;4951864;29;20218;-73
2022/04/11 09:24:33;;;;;;;5.03;3.37;;;;;;;11.11;nan;-24127.22;4951769;29;20190;-72
2022/04/11 09:26:58;;;;;;;3.47;3.17;;;;;;;11.07;nan;-24126.22;4954463;29;20182;-72
2022/04/11 09:29:30;;;;;;;3.60;3.20;;;;;;;11.03;nan;-24125.25;4954248;29;20664;-72
2022/04/11 09:32:02;;;;;;;5.43;3.60;;;;;;;10.68;nan;-24115.38;4953302;29;20193;-73
2022/04/11 09:34:28;;;;;;;4.23;3.50;;;;;;;10.94;nan;-24122.69;4952530;29;20245;-72
2022/04/11 09:36:56;;;;;;;3.80;3.40;;;;;;;10.76;nan;-24117.47;4952490;29;20209;-73
2022/04/11 09:39:27;;;;;;;4.23;3.20;;;;;;;10.95;nan;-24122.84;4952324;29;20191;-73
2022/04/11 09:41:52;;;;;;;4.07;3.40;;;;;;;10.27;nan;-24103.94;4951510;29;20178;-73
2022/04/11 09:44:22;;;;;;;4.63;3.60;;;;;;;10.38;nan;-24106.91;4950337;29;20613;-73
2022/04/11 09:46:49;;;;;;;3.80;3.33;;;;;;;10.71;nan;-24116.06;4950653;29;20194;-72
2022/04/11 09:49:15;;;;;;;5.07;3.87;;;;;;;10.51;nan;-24110.72;4947832;29;20272;-73
2022/04/11 09:52:03;;;;;;;5.27;3.50;;;;;;;11.09;nan;-24126.78;4947946;28;20265;-72
2022/04/11 09:54:30;;;;;;;4.10;3.33;;;;;;;10.74;nan;-24116.91;4952415;29;20265;-72
2022/04/11 09:56:58;;;;;;;7.67;3.67;;;;;;;10.58;nan;-24112.69;4950374;29;20182;-73
2022/04/11 09:59:24;;;;;;;4.40;3.80;;;;;;;10.73;nan;-24116.78;4951068;29;20217;-73
2022/04/11 10:01:52;;;;;;;5.50;3.85;;;;;;;10.78;nan;-24118.03;4945706;29;20638;-73
2022/04/11 10:04:21;;;;;;;5.37;3.77;;;;;;;10.46;nan;-24109.31;4951222;29;20704;-73
2022/04/11 10:06:48;;;;;;;5.40;4.07;;;;;;;10.51;nan;-24110.72;4948596;29;20194;-73
2022/04/11 10:09:14;;;;;;;6.27;3.73;;;;;;;10.69;nan;-24115.50;4951283;29;20189;-73
2022/04/11 10:11:44;;;;;;;4.67;3.90;;;;;;;10.73;nan;-24116.78;4948177;29;20289;-73
2022/04/11 10:14:11;;;;;;;5.93;3.43;;;;;;;11.16;nan;-24128.63;4950704;28;20297;-72
2022/04/11 10:16:44;;;;;;;5.80;3.65;;;;;;;11.02;nan;-24124.97;4951063;29;20184;-73
2022/04/11 10:19:11;;;;;;;7.60;3.95;;;;;;;11.35;nan;-24133.97;4949655;28;20250;-73
2022/04/11 10:21:42;;;;;;;4.65;3.70;;;;;;;11.58;nan;-24140.31;4947926;28;20194;-73
2022/04/11 10:24:18;;;;;;;4.22;3.70;;;;;;;11.59;nan;-24140.75;4950875;29;20186;-72
2022/04/11 10:26:53;;;;;;;5.05;3.90;;;;;;;11.46;nan;-24137.09;4947696;29;20278;-71
2022/04/11 10:29:38;;;;;;;4.22;3.55;;;;;;;11.70;nan;-24143.69;4946255;28;20181;-70
2022/04/11 10:32:10;;;;;;;6.32;4.43;;;;;;;12.53;nan;-24166.78;4946552;29;20208;-71
2022/04/11 10:34:56;;;;;;;4.47;3.63;;;;;;;12.58;nan;-24168.34;4947564;29;20206;-72
2022/04/11 10:37:28;;;;;;;5.55;3.80;;;;;;;12.33;nan;-24161.31;4968472;28;20245;-71
2022/04/11 10:40:16;;;;;;;4.90;3.60;;;;;;;12.46;nan;-24164.81;4945622;28;20190;-72
2022/04/11 10:42:59;;;;;;;4.32;3.72;;;;;;;13.00;nan;-24180.00;4937809;28;20628;-71
2022/04/11 10:45:36;;;;;;;7.63;3.58;;;;;;;13.02;nan;-24180.56;4949060;29;20177;-72
2022/04/11 10:48:03;;;;;;;3.95;3.20;;;;;;;13.14;nan;-24183.81;4950609;29;20342;-73
2022/04/11 10:50:36;;;;;;;5.07;3.58;;;;;;;12.47;nan;-24165.25;4951652;29;20256;-72
2022/04/11 10:53:24;;;;;;;7.18;3.70;;;;;;;13.12;nan;-24183.25;4952010;28;20197;-72
2022/04/11 10:55:55;;;;;;;4.03;3.60;;;;;;;13.15;nan;-24184.09;4953568;29;20190;-72
2022/04/11 10:58:40;;;;;;;3.70;3.28;;;;;;;12.86;nan;-24176.06;4951810;28;20186;-74
2022/04/11 11:01:06;;;;;;;4.35;3.20;;;;;;;13.06;nan;-24181.69;4946402;29;20530;-71
2022/04/11 11:03:32;;;;;;;4.57;3.50;;;;;;;12.85;nan;-24175.78;4946328;28;20206;-71
2022/04/11 11:06:15;;;;;;;3.55;3.22;;;;;;;12.55;nan;-24167.34;4947268;29;20244;-72
2022/04/11 11:08:41;;;;;;;4.85;3.30;;;;;;;12.46;nan;-24164.81;4945612;29;20186;-70
2022/04/11 11:11:24;;;;;;;4.13;3.67;;;;;;;12.71;nan;-24171.84;4947036;29;20300;-71
2022/04/11 11:13:50;;;;;;;4.10;3.28;;;;;;;12.65;nan;-24170.31;4948477;29;20213;-71
2022/04/11 11:16:17;;;;;;;3.60;3.30;;;;;;;12.81;nan;-24174.66;4945462;29;20174;-71
2022/04/11 11:18:49;;;;;;;4.47;3.45;;;;;;;13.15;nan;-24184.22;4948612;28;20240;-71
2022/04/11 11:21:19;;;;;;;5.82;3.53;;;;;;;12.95;nan;-24178.59;4949481;29;20655;-72
2022/04/11 11:24:10;;;;;;;4.80;3.42;;;;;;;13.24;nan;-24186.63;4948393;29;20200;-70
2022/04/11 11:26:52;;;;;;;4.68;3.35;;;;;;;12.80;nan;-24174.38;4946595;29;20241;-71
2022/04/11 11:29:21;;;;;;;4.10;3.08;;;;;;;13.28;nan;-24187.75;4949278;29;20182;-72
2022/04/11 11:31:49;;;;;;;5.10;3.00;;;;;;;13.20;nan;-24185.50;4948786;29;20186;-72
2022/04/11 11:34:16;;;;;;;3.22;2.90;;;;;;;13.33;nan;-24189.00;4948827;28;20288;-71
2022/04/11 11:36:42;;;;;;;2.95;2.65;;;;;;;13.35;nan;-24189.56;4948643;28;20185;-71
2022/04/11 11:39:26;;;;;;;3.33;2.95;;;;;;;13.59;nan;-24196.31;4950193;28;20569;-71
2022/04/11 11:41:55;;;;;;;3.92;2.90;;;;;;;13.87;nan;-24204.03;4956012;29;20205;-72
2022/04/11 11:44:21;;;;;;;3.50;2.80;;;;;;;13.86;nan;-24203.88;4952610;29;20189;-71
2022/04/11 11:46:50;;;;;;;2.92;2.63;;;;;;;14.08;nan;-24209.91;4938601;29;20190;-72